createdAt,value
2018-06-12T00:00:55.785Z,20.32
2018-06-12T00:01:54.470Z,20.34
2018-06-12T00:02:55.356Z,20.37
2018-06-12T00:03:54.658Z,20.19
2018-06-12T00:04:54.326Z,20.31
2018-06-12T00:05:54.330Z,20.26
2018-06-12T00:06:54.334Z,20.19
2018-06-12T00:07:54.331Z,20.24
2018-06-12T00:08:54.335Z,20.19
2018-06-12T00:09:54.340Z,20.22
2018-06-12T00:10:54.342Z,20.21
2018-06-12T00:11:54.350Z,20.24
2018-06-12T00:12:54.354Z,20.21
2018-06-12T00:13:54.357Z,20.24
2018-06-12T00:14:54.354Z,20.25
2018-06-12T00:15:54.356Z,20.10
2018-06-12T00:16:54.360Z,20.09
2018-06-12T00:17:54.363Z,20.06
2018-06-12T00:18:54.387Z,20.04
2018-06-12T00:19:54.371Z,20.03
2018-06-12T00:20:54.371Z,20.09
2018-06-12T00:21:54.375Z,20.03
2018-06-12T00:22:54.378Z,20.04
2018-06-12T00:23:54.382Z,20.07
2018-06-12T00:24:54.389Z,20.07
2018-06-12T00:25:54.387Z,20.07
2018-06-12T00:26:54.391Z,20.02
2018-06-12T00:27:54.391Z,19.92
2018-06-12T00:28:54.394Z,20.00
2018-06-12T00:29:54.402Z,19.96
2018-06-12T00:30:54.401Z,20.02
2018-06-12T00:31:54.411Z,20.03
2018-06-12T00:32:54.409Z,20.00
2018-06-12T00:33:54.412Z,19.96
2018-06-12T00:34:54.414Z,20.00
2018-06-12T00:35:54.416Z,19.89
2018-06-12T00:36:54.418Z,19.89
2018-06-12T00:37:54.427Z,20.02
2018-06-12T00:38:54.424Z,19.94
2018-06-12T00:39:54.431Z,19.99
2018-06-12T00:40:54.431Z,19.92
2018-06-12T00:41:54.434Z,19.95
2018-06-12T00:42:54.439Z,19.96
2018-06-12T00:43:54.439Z,19.91
2018-06-12T00:44:54.445Z,19.95
2018-06-12T00:45:54.446Z,19.95
2018-06-12T00:46:54.449Z,19.89
2018-06-12T00:47:54.452Z,19.88
2018-06-12T00:48:54.453Z,19.84
2018-06-12T00:49:54.457Z,19.85
2018-06-12T00:50:54.463Z,19.81
2018-06-12T00:51:54.461Z,19.81
2018-06-12T00:52:54.465Z,19.84
2018-06-12T00:53:54.491Z,19.82
2018-06-12T00:54:54.473Z,19.82
2018-06-12T00:55:54.476Z,19.81
2018-06-12T00:56:54.475Z,19.81
2018-06-12T00:57:54.525Z,19.67
2018-06-12T00:58:54.484Z,19.67
2018-06-12T00:59:54.485Z,19.71
2018-06-12T01:00:54.486Z,19.67
2018-06-12T01:01:54.492Z,19.73
2018-06-12T01:02:54.495Z,19.74
2018-06-12T01:03:54.497Z,19.71
2018-06-12T01:04:54.504Z,19.67
2018-06-12T01:05:54.514Z,19.63
2018-06-12T01:06:54.505Z,19.67
2018-06-12T01:07:54.506Z,19.69
2018-06-12T01:08:54.508Z,19.76
2018-06-12T01:09:54.511Z,19.79
2018-06-12T01:10:54.515Z,19.77
2018-06-12T01:11:54.518Z,19.85
2018-06-12T01:12:54.520Z,19.85
2018-06-12T01:13:54.524Z,19.85
2018-06-12T01:14:54.527Z,19.82
2018-06-12T01:15:54.531Z,19.86
2018-06-12T01:16:54.532Z,19.91
2018-06-12T01:17:54.534Z,19.88
2018-06-12T01:18:54.537Z,19.88
2018-06-12T01:19:54.541Z,19.82
2018-06-12T01:20:54.543Z,19.85
2018-06-12T01:21:54.546Z,19.91
2018-06-12T01:22:54.549Z,20.00
2018-06-12T01:23:54.599Z,19.94
2018-06-12T01:24:54.586Z,19.95
2018-06-12T01:25:54.557Z,19.89
2018-06-12T01:26:54.560Z,19.94
2018-06-12T01:27:54.562Z,19.88
2018-06-12T01:28:54.566Z,19.94
2018-06-12T01:29:54.568Z,19.85
2018-06-12T01:30:54.573Z,19.88
2018-06-12T01:31:54.575Z,19.81
2018-06-12T01:32:54.577Z,19.91
2018-06-12T01:33:54.580Z,19.85
2018-06-12T01:34:54.585Z,19.81
2018-06-12T01:35:54.585Z,19.81
2018-06-12T01:36:54.588Z,19.81
2018-06-12T01:37:54.590Z,19.70
2018-06-12T01:38:54.592Z,19.70
2018-06-12T01:39:54.595Z,19.70
2018-06-12T01:40:54.597Z,19.76
2018-06-12T01:41:54.600Z,19.81
2018-06-12T01:42:54.602Z,19.79
2018-06-12T01:43:54.606Z,19.77
2018-06-12T01:44:54.607Z,19.74
2018-06-12T01:45:54.610Z,19.69
2018-06-12T01:46:54.616Z,19.69
2018-06-12T01:47:54.617Z,19.67
2018-06-12T01:48:54.618Z,19.66
2018-06-12T01:49:54.619Z,19.69
2018-06-12T01:50:54.622Z,19.71
2018-06-12T01:51:54.625Z,19.69
2018-06-12T01:52:54.638Z,19.67
2018-06-12T01:53:54.629Z,19.64
2018-06-12T01:54:54.641Z,19.66
2018-06-12T01:55:54.635Z,19.69
2018-06-12T01:56:54.637Z,19.67
2018-06-12T01:57:54.639Z,19.69
2018-06-12T01:58:54.642Z,19.66
2018-06-12T01:59:54.645Z,19.66
2018-06-12T02:00:54.647Z,19.71
2018-06-12T02:01:54.651Z,19.67
2018-06-12T02:02:54.653Z,19.64
2018-06-12T02:03:54.653Z,19.54
2018-06-12T02:04:54.659Z,19.54
2018-06-12T02:05:54.660Z,19.59
2018-06-12T02:06:54.661Z,19.48
2018-06-12T02:07:54.663Z,19.58
2018-06-12T02:08:54.666Z,19.66
2018-06-12T02:09:54.669Z,19.59
2018-06-12T02:10:54.672Z,19.56
2018-06-12T02:11:54.674Z,19.63
2018-06-12T02:12:54.687Z,19.59
2018-06-12T02:13:54.680Z,19.58
2018-06-12T02:14:54.682Z,19.56
2018-06-12T02:15:54.690Z,19.55
2018-06-12T02:16:54.686Z,19.56
2018-06-12T02:17:54.689Z,19.63
2018-06-12T02:18:54.692Z,19.64
2018-06-12T02:19:54.695Z,19.63
2018-06-12T02:20:54.696Z,19.56
2018-06-12T02:21:54.700Z,19.54
2018-06-12T02:22:54.702Z,19.59
2018-06-12T02:23:54.705Z,19.51
2018-06-12T02:24:54.706Z,19.56
2018-06-12T02:25:54.714Z,19.54
2018-06-12T02:26:54.713Z,19.49
2018-06-12T02:27:54.713Z,19.41
2018-06-12T02:28:54.715Z,19.40
2018-06-12T02:29:54.723Z,19.41
2018-06-12T02:30:54.727Z,19.34
2018-06-12T02:31:54.723Z,19.27
2018-06-12T02:32:54.727Z,19.22
2018-06-12T02:33:54.729Z,19.26
2018-06-12T02:34:54.740Z,19.19
2018-06-12T02:35:54.733Z,19.12
2018-06-12T02:36:54.738Z,19.16
2018-06-12T02:37:54.737Z,19.18
2018-06-12T02:38:54.757Z,19.14
2018-06-12T02:39:54.742Z,19.09
2018-06-12T02:40:54.745Z,19.12
2018-06-12T02:41:54.749Z,19.15
2018-06-12T02:42:54.749Z,19.14
2018-06-12T02:43:54.751Z,19.09
2018-06-12T02:44:54.755Z,19.04
2018-06-12T02:45:54.755Z,18.96
2018-06-12T02:46:54.760Z,18.98
2018-06-12T02:47:54.769Z,18.92
2018-06-12T02:48:54.765Z,18.93
2018-06-12T02:49:54.764Z,18.88
2018-06-12T02:50:54.769Z,18.89
2018-06-12T02:51:54.772Z,18.86
2018-06-12T02:52:54.772Z,18.88
2018-06-12T02:53:54.772Z,18.86
2018-06-12T02:54:54.775Z,18.89
2018-06-12T02:55:54.777Z,18.95
2018-06-12T02:56:54.784Z,18.90
2018-06-12T02:57:54.786Z,18.90
2018-06-12T02:58:54.785Z,18.92
2018-06-12T02:59:54.784Z,18.86
2018-06-12T03:00:54.786Z,18.88
2018-06-12T03:01:54.788Z,18.92
2018-06-12T03:02:54.791Z,18.78
2018-06-12T03:03:54.792Z,18.84
2018-06-12T03:04:54.796Z,18.80
2018-06-12T03:05:54.799Z,18.80
2018-06-12T03:06:54.800Z,18.78
2018-06-12T03:07:54.800Z,18.70
2018-06-12T03:08:54.802Z,18.80
2018-06-12T03:09:54.803Z,18.71
2018-06-12T03:10:54.807Z,18.71
2018-06-12T03:11:54.809Z,18.68
2018-06-12T03:12:54.809Z,18.71
2018-06-12T03:13:54.813Z,18.70
2018-06-12T03:14:54.825Z,18.70
2018-06-12T03:15:54.817Z,18.58
2018-06-12T03:16:54.816Z,18.56
2018-06-12T03:17:54.818Z,18.53
2018-06-12T03:18:54.831Z,18.53
2018-06-12T03:19:54.820Z,18.52
2018-06-12T03:20:54.825Z,18.45
2018-06-12T03:21:54.825Z,18.50
2018-06-12T03:22:54.830Z,18.45
2018-06-12T03:23:54.830Z,18.43
2018-06-12T03:24:54.834Z,18.47
2018-06-12T03:25:54.834Z,18.38
2018-06-12T03:26:54.857Z,18.43
2018-06-12T03:27:54.839Z,18.37
2018-06-12T03:28:54.838Z,18.43
2018-06-12T03:29:55.809Z,18.38
2018-06-12T03:30:54.843Z,18.37
2018-06-12T03:31:54.843Z,18.33
2018-06-12T03:32:54.847Z,18.22
2018-06-12T03:33:54.867Z,18.25
2018-06-12T03:34:54.851Z,18.20
2018-06-12T03:35:54.852Z,18.26
2018-06-12T03:36:54.852Z,18.13
2018-06-12T03:37:54.853Z,18.10
2018-06-12T03:38:54.856Z,18.05
2018-06-12T03:39:56.600Z,18.18
2018-06-12T03:40:54.864Z,18.13
2018-06-12T03:41:54.864Z,18.25
2018-06-12T03:42:54.861Z,18.26
2018-06-12T03:43:54.863Z,18.16
2018-06-12T03:44:54.865Z,18.15
2018-06-12T03:45:54.875Z,18.15
2018-06-12T03:46:54.868Z,18.10
2018-06-12T03:47:54.869Z,18.11
2018-06-12T03:48:54.869Z,18.15
2018-06-12T03:49:54.873Z,18.10
2018-06-12T03:50:54.875Z,18.15
2018-06-12T03:51:54.876Z,18.13
2018-06-12T03:52:54.875Z,18.13
2018-06-12T03:53:54.877Z,18.15
2018-06-12T03:54:54.885Z,18.07
2018-06-12T03:55:54.880Z,18.01
2018-06-12T03:56:54.918Z,17.98
2018-06-12T03:57:54.883Z,18.04
2018-06-12T03:58:54.888Z,18.00
2018-06-12T03:59:54.886Z,18.00
2018-06-12T04:00:54.893Z,18.00
2018-06-12T04:01:54.891Z,18.01
2018-06-12T04:02:54.892Z,17.95
2018-06-12T04:03:54.893Z,17.97
2018-06-12T04:04:54.896Z,18.01
2018-06-12T04:05:54.897Z,17.97
2018-06-12T04:06:54.897Z,17.98
2018-06-12T04:07:54.899Z,17.98
2018-06-12T04:08:54.905Z,18.00
2018-06-12T04:09:54.904Z,17.94
2018-06-12T04:10:54.904Z,17.97
2018-06-12T04:11:54.905Z,17.94
2018-06-12T04:12:54.909Z,17.94
2018-06-12T04:13:54.909Z,18.03
2018-06-12T04:14:54.924Z,18.04
2018-06-12T04:15:54.907Z,18.05
2018-06-12T04:16:54.910Z,18.00
2018-06-12T04:17:54.913Z,18.03
2018-06-12T04:18:54.919Z,18.04
2018-06-12T04:19:54.915Z,17.98
2018-06-12T04:20:54.915Z,17.92
2018-06-12T04:21:54.918Z,17.95
2018-06-12T04:22:54.927Z,18.01
2018-06-12T04:23:54.919Z,17.98
2018-06-12T04:24:54.921Z,17.98
2018-06-12T04:25:54.923Z,17.98
2018-06-12T04:26:54.931Z,18.00
2018-06-12T04:27:54.927Z,18.04
2018-06-12T04:28:54.926Z,18.03
2018-06-12T04:29:54.932Z,17.97
2018-06-12T04:30:54.929Z,18.00
2018-06-12T04:31:54.930Z,18.00
2018-06-12T04:32:54.933Z,18.01
2018-06-12T04:33:54.933Z,17.98
2018-06-12T04:34:54.936Z,17.97
2018-06-12T04:35:54.940Z,18.07
2018-06-12T04:36:54.939Z,18.05
2018-06-12T04:37:54.942Z,18.08
2018-06-12T04:38:54.944Z,18.03
2018-06-12T04:39:54.944Z,17.98
2018-06-12T04:40:54.952Z,18.01
2018-06-12T04:41:54.946Z,18.01
2018-06-12T04:42:54.950Z,18.03
2018-06-12T04:43:54.949Z,18.00
2018-06-12T04:44:54.949Z,17.95
2018-06-12T04:45:54.953Z,17.97
2018-06-12T04:46:54.994Z,17.97
2018-06-12T04:47:54.955Z,17.92
2018-06-12T04:48:54.959Z,17.92
2018-06-12T04:49:54.965Z,17.97
2018-06-12T04:50:54.970Z,17.90
2018-06-12T04:51:54.960Z,17.85
2018-06-12T04:52:54.964Z,17.82
2018-06-12T04:53:54.966Z,17.82
2018-06-12T04:54:54.967Z,17.78
2018-06-12T04:55:54.966Z,17.74
2018-06-12T04:56:54.973Z,17.80
2018-06-12T04:57:54.973Z,17.72
2018-06-12T04:58:54.971Z,17.71
2018-06-12T04:59:54.971Z,17.71
2018-06-12T05:00:54.973Z,17.56
2018-06-12T05:01:54.984Z,17.64
2018-06-12T05:02:54.976Z,17.59
2018-06-12T05:03:54.980Z,17.42
2018-06-12T05:04:54.978Z,17.49
2018-06-12T05:05:54.983Z,17.52
2018-06-12T05:06:54.981Z,17.59
2018-06-12T05:07:54.984Z,17.52
2018-06-12T05:08:54.982Z,17.52
2018-06-12T05:09:54.984Z,17.56
2018-06-12T05:10:55.012Z,17.49
2018-06-12T05:11:54.985Z,17.39
2018-06-12T05:12:55.001Z,17.46
2018-06-12T05:13:54.987Z,17.34
2018-06-12T05:14:55.037Z,17.39
2018-06-12T05:15:54.990Z,17.42
2018-06-12T05:16:55.022Z,17.34
2018-06-12T05:17:54.995Z,17.49
2018-06-12T05:18:54.995Z,17.48
2018-06-12T05:19:55.015Z,17.54
2018-06-12T05:20:55.000Z,17.51
2018-06-12T05:21:54.997Z,17.44
2018-06-12T05:22:54.996Z,17.42
2018-06-12T05:23:54.996Z,17.36
2018-06-12T05:24:55.004Z,17.41
2018-06-12T05:25:55.006Z,17.41
2018-06-12T05:26:55.000Z,17.39
2018-06-12T05:27:55.003Z,17.36
2018-06-12T05:28:55.004Z,17.46
2018-06-12T05:29:55.013Z,17.41
2018-06-12T05:30:55.006Z,17.27
2018-06-12T05:31:55.005Z,17.27
2018-06-12T05:32:55.008Z,17.24
2018-06-12T05:33:55.006Z,17.27
2018-06-12T05:34:55.008Z,17.27
2018-06-12T05:35:55.008Z,17.27
2018-06-12T05:36:55.010Z,17.34
2018-06-12T05:37:55.010Z,17.41
2018-06-12T05:38:55.012Z,17.38
2018-06-12T05:39:55.069Z,17.41
2018-06-12T05:40:55.013Z,17.51
2018-06-12T05:41:55.014Z,17.54
2018-06-12T05:42:55.016Z,17.63
2018-06-12T05:43:55.016Z,17.54
2018-06-12T05:44:55.024Z,17.60
2018-06-12T05:45:55.022Z,17.60
2018-06-12T05:46:55.025Z,17.63
2018-06-12T05:47:55.020Z,17.74
2018-06-12T05:48:55.021Z,17.78
2018-06-12T05:49:55.023Z,17.78
2018-06-12T05:50:55.025Z,17.86
2018-06-12T05:51:55.027Z,18.00
2018-06-12T05:52:55.026Z,17.92
2018-06-12T05:53:55.027Z,17.97
2018-06-12T05:54:55.029Z,17.90
2018-06-12T05:55:55.272Z,17.97
2018-06-12T05:56:55.032Z,18.00
2018-06-12T05:57:55.038Z,17.80
2018-06-12T05:58:55.038Z,17.89
2018-06-12T05:59:55.038Z,17.82
2018-06-12T06:00:55.038Z,17.79
2018-06-12T06:01:55.041Z,17.71
2018-06-12T06:02:55.043Z,17.68
2018-06-12T06:03:55.160Z,17.65
2018-06-12T06:04:55.045Z,17.60
2018-06-12T06:05:55.046Z,17.65
2018-06-12T06:06:55.047Z,17.48
2018-06-12T06:07:55.048Z,17.49
2018-06-12T06:08:55.050Z,17.48
2018-06-12T06:09:55.050Z,17.54
2018-06-12T06:10:55.055Z,17.52
2018-06-12T06:11:55.075Z,17.49
2018-06-12T06:12:55.055Z,17.51
2018-06-12T06:13:55.055Z,17.56
2018-06-12T06:14:55.057Z,17.52
2018-06-12T06:15:55.057Z,17.39
2018-06-12T06:16:55.058Z,17.54
2018-06-12T06:17:55.061Z,17.46
2018-06-12T06:18:55.061Z,17.56
2018-06-12T06:19:55.063Z,17.57
2018-06-12T06:20:55.064Z,17.60
2018-06-12T06:21:55.065Z,17.57
2018-06-12T06:22:55.067Z,17.64
2018-06-12T06:23:55.071Z,17.70
2018-06-12T06:24:55.067Z,17.82
2018-06-12T06:25:55.069Z,17.83
2018-06-12T06:26:55.074Z,17.85
2018-06-12T06:27:55.071Z,17.85
2018-06-12T06:28:55.073Z,17.89
2018-06-12T06:29:55.084Z,17.86
2018-06-12T06:30:55.074Z,17.89
2018-06-12T06:31:55.075Z,17.82
2018-06-12T06:32:55.077Z,17.86
2018-06-12T06:33:55.080Z,17.94
2018-06-12T06:34:55.107Z,17.95
2018-06-12T06:35:55.081Z,17.92
2018-06-12T06:36:55.135Z,18.01
2018-06-12T06:37:55.454Z,18.03
2018-06-12T06:38:55.087Z,18.01
2018-06-12T06:39:55.086Z,18.00
2018-06-12T06:40:55.089Z,17.90
2018-06-12T06:41:55.093Z,17.90
2018-06-12T06:42:55.094Z,17.80
2018-06-12T06:43:55.126Z,17.78
2018-06-12T06:44:55.093Z,17.74
2018-06-12T06:45:55.096Z,17.72
2018-06-12T06:46:55.101Z,17.63
2018-06-12T06:47:55.097Z,17.68
2018-06-12T06:48:55.100Z,17.74
2018-06-12T06:49:55.101Z,17.83
2018-06-12T06:50:55.116Z,17.80
2018-06-12T06:51:55.107Z,17.85
2018-06-12T06:52:55.120Z,17.86
2018-06-12T06:53:55.106Z,17.86
2018-06-12T06:54:55.111Z,17.74
2018-06-12T06:55:55.120Z,17.82
2018-06-12T06:56:55.110Z,17.86
2018-06-12T06:57:55.111Z,17.90
2018-06-12T06:58:55.164Z,17.97
2018-06-12T06:59:55.115Z,18.01
2018-06-12T07:00:55.116Z,17.86
2018-06-12T07:01:55.117Z,17.98
2018-06-12T07:02:55.119Z,17.94
2018-06-12T07:03:55.120Z,18.05
2018-06-12T07:04:55.120Z,18.01
2018-06-12T07:05:55.124Z,18.13
2018-06-12T07:06:55.123Z,18.22
2018-06-12T07:07:55.125Z,18.31
2018-06-12T07:08:55.127Z,18.22
2018-06-12T07:09:55.128Z,18.20
2018-06-12T07:10:55.129Z,18.23
2018-06-12T07:11:55.263Z,18.28
2018-06-12T07:12:55.133Z,18.34
2018-06-12T07:13:55.133Z,18.37
2018-06-12T07:14:55.149Z,18.38
2018-06-12T07:15:55.137Z,18.38
2018-06-12T07:16:55.137Z,18.33
2018-06-12T07:17:55.142Z,18.20
2018-06-12T07:18:55.142Z,18.23
2018-06-12T07:19:55.143Z,18.28
2018-06-12T07:20:55.148Z,18.37
2018-06-12T07:21:55.149Z,18.44
2018-06-12T07:22:55.152Z,18.40
2018-06-12T07:23:55.149Z,18.29
2018-06-12T07:24:55.627Z,18.47
2018-06-12T07:25:55.538Z,18.53
2018-06-12T07:26:55.197Z,18.49
2018-06-12T07:27:55.922Z,18.43
2018-06-12T07:28:56.569Z,18.37
2018-06-12T07:29:55.453Z,18.43
2018-06-12T07:30:55.393Z,18.37
2018-06-12T07:31:55.167Z,18.38
2018-06-12T07:32:55.219Z,18.40
2018-06-12T07:33:55.171Z,18.45
2018-06-12T07:34:55.170Z,18.55
2018-06-12T07:35:55.172Z,18.43
2018-06-12T07:36:55.181Z,18.43
2018-06-12T07:37:55.176Z,18.40
2018-06-12T07:38:55.178Z,18.40
2018-06-12T07:39:55.180Z,18.37
2018-06-12T07:40:55.182Z,18.49
2018-06-12T07:41:55.185Z,18.52
2018-06-12T07:42:55.189Z,18.58
2018-06-12T07:43:55.187Z,18.60
2018-06-12T07:44:55.188Z,18.58
2018-06-12T07:45:55.193Z,18.50
2018-06-12T07:46:55.197Z,18.53
2018-06-12T07:47:55.193Z,18.50
2018-06-12T07:48:55.230Z,18.52
2018-06-12T07:49:55.197Z,18.50
2018-06-12T07:50:55.202Z,18.55
2018-06-12T07:51:55.202Z,18.53
2018-06-12T07:52:55.204Z,18.49
2018-06-12T07:53:55.207Z,18.45
2018-06-12T07:54:55.224Z,18.35
2018-06-12T07:55:55.213Z,18.29
2018-06-12T07:56:55.211Z,18.45
2018-06-12T07:57:55.213Z,18.58
2018-06-12T07:58:55.216Z,18.77
2018-06-12T07:59:55.221Z,18.75
2018-06-12T08:00:55.268Z,18.66
2018-06-12T08:01:55.221Z,18.60
2018-06-12T08:02:55.224Z,18.53
2018-06-12T08:03:55.259Z,18.45
2018-06-12T08:04:55.226Z,18.33
2018-06-12T08:05:55.233Z,18.40
2018-06-12T08:06:55.249Z,18.26
2018-06-12T08:07:55.233Z,18.34
2018-06-12T08:08:55.235Z,18.37
2018-06-12T08:09:55.236Z,18.38
2018-06-12T08:10:55.237Z,18.40
2018-06-12T08:11:55.239Z,18.44
2018-06-12T08:12:55.308Z,18.43
2018-06-12T08:13:55.243Z,18.35
2018-06-12T08:14:55.247Z,18.40
2018-06-12T08:15:55.246Z,18.45
2018-06-12T08:16:55.248Z,18.58
2018-06-12T08:17:55.250Z,18.60
2018-06-12T08:18:55.254Z,18.71
2018-06-12T08:19:55.253Z,18.90
2018-06-12T08:20:55.256Z,19.00
2018-06-12T08:21:55.279Z,19.15
2018-06-12T08:22:55.259Z,19.26
2018-06-12T08:23:55.300Z,19.30
2018-06-12T08:24:55.268Z,19.34
2018-06-12T08:25:55.268Z,19.44
2018-06-12T08:26:55.268Z,19.44
2018-06-12T08:27:55.270Z,19.49
2018-06-12T08:28:55.363Z,19.49
2018-06-12T08:29:55.366Z,19.55
2018-06-12T08:30:55.278Z,19.62
2018-06-12T08:31:55.280Z,19.64
2018-06-12T08:32:55.283Z,19.73
2018-06-12T08:33:55.284Z,19.71
2018-06-12T08:34:55.320Z,19.55
2018-06-12T08:35:55.290Z,19.59
2018-06-12T08:36:55.293Z,19.66
2018-06-12T08:37:55.297Z,19.64
2018-06-12T08:38:55.298Z,19.66
2018-06-12T08:39:55.336Z,19.66
2018-06-12T08:40:55.328Z,19.69
2018-06-12T08:41:55.330Z,19.85
2018-06-12T08:42:55.314Z,19.81
2018-06-12T08:43:55.309Z,19.64
2018-06-12T08:44:55.318Z,19.77
2018-06-12T08:45:55.317Z,19.96
2018-06-12T08:46:55.320Z,20.19
2018-06-12T08:47:55.325Z,20.87
2018-06-12T08:48:55.325Z,21.70
2018-06-12T08:49:55.325Z,22.30
2018-06-12T08:50:55.329Z,23.25
2018-06-12T08:51:55.332Z,24.05
2018-06-12T08:52:55.335Z,24.43
2018-06-12T08:53:55.342Z,25.13
2018-06-12T08:54:55.348Z,25.83
2018-06-12T08:55:55.351Z,26.37
2018-06-12T08:56:55.353Z,26.88
2018-06-12T08:57:55.379Z,27.22
2018-06-12T08:58:55.372Z,27.36
2018-06-12T08:59:55.366Z,27.54
2018-06-12T09:00:55.372Z,27.71
2018-06-12T09:01:55.595Z,27.49
2018-06-12T09:02:55.392Z,27.17
2018-06-12T09:03:55.392Z,27.11
2018-06-12T09:04:55.394Z,27.11
2018-06-12T09:05:55.401Z,27.10
2018-06-12T09:06:55.427Z,27.25
2018-06-12T09:07:55.418Z,26.88
2018-06-12T09:08:55.422Z,26.97
2018-06-12T09:09:55.427Z,27.33
2018-06-12T09:10:55.433Z,27.70
2018-06-12T09:11:55.439Z,28.26
2018-06-12T09:12:55.447Z,28.84
2018-06-12T09:13:55.453Z,29.29
2018-06-12T09:14:55.462Z,29.75
2018-06-12T09:15:55.468Z,30.08
2018-06-12T09:16:55.480Z,30.23
2018-06-12T09:17:55.483Z,29.13
2018-06-12T09:18:55.489Z,28.78
2018-06-12T09:19:55.498Z,28.60
2018-06-12T09:20:55.510Z,28.42
2018-06-12T09:21:55.514Z,28.47
2018-06-12T09:22:55.527Z,28.33
2018-06-12T09:23:55.528Z,28.19
2018-06-12T09:24:55.551Z,27.90
2018-06-12T09:25:55.547Z,27.59
2018-06-12T09:26:55.553Z,27.36
2018-06-12T09:27:55.559Z,27.22
2018-06-12T09:28:55.571Z,26.97
2018-06-12T09:29:55.574Z,26.58
2018-06-12T09:30:55.583Z,26.06
2018-06-12T09:31:55.603Z,25.85
2018-06-12T09:32:55.605Z,25.62
2018-06-12T09:33:55.608Z,25.50
2018-06-12T09:34:55.614Z,25.43
2018-06-12T09:35:55.620Z,25.23
2018-06-12T09:36:55.625Z,25.29
2018-06-12T09:37:55.630Z,25.23
2018-06-12T09:38:55.639Z,24.89
2018-06-12T09:39:55.643Z,25.51
2018-06-12T09:40:55.653Z,25.81
2018-06-12T09:41:55.656Z,26.13
2018-06-12T09:42:55.664Z,26.52
2018-06-12T09:43:55.669Z,26.97
2018-06-12T09:44:55.676Z,26.84
2018-06-12T09:45:55.682Z,26.74
2018-06-12T09:46:55.689Z,27.14
2018-06-12T09:47:55.694Z,27.17
2018-06-12T09:48:55.701Z,26.92
2018-06-12T09:49:55.709Z,27.14
2018-06-12T09:50:55.720Z,27.14
2018-06-12T09:51:55.723Z,27.17
2018-06-12T09:52:55.728Z,27.00
2018-06-12T09:53:55.739Z,26.74
2018-06-12T09:54:55.755Z,26.22
2018-06-12T09:55:55.760Z,25.66
2018-06-12T09:56:55.756Z,25.44
2018-06-12T09:57:55.763Z,25.26
2018-06-12T09:58:55.770Z,25.07
2018-06-12T09:59:55.777Z,25.04
2018-06-12T10:00:55.784Z,25.08
2018-06-12T10:01:55.791Z,25.16
2018-06-12T10:02:55.795Z,25.06
2018-06-12T10:03:55.803Z,25.04
2018-06-12T10:04:55.808Z,24.99
2018-06-12T10:05:55.814Z,25.03
2018-06-12T10:06:55.821Z,24.91
2018-06-12T10:07:55.883Z,24.93
2018-06-12T10:08:55.833Z,24.86
2018-06-12T10:09:55.851Z,24.74
2018-06-12T10:10:55.846Z,24.81
2018-06-12T10:11:55.851Z,24.60
2018-06-12T10:12:55.867Z,24.43
2018-06-12T10:13:55.864Z,24.33
2018-06-12T10:14:55.869Z,24.20
2018-06-12T10:15:55.873Z,24.02
2018-06-12T10:16:55.882Z,24.08
2018-06-12T10:17:55.885Z,24.05
2018-06-12T10:18:55.962Z,24.11
2018-06-12T10:19:55.897Z,24.21
2018-06-12T10:20:55.915Z,24.33
2018-06-12T10:21:55.907Z,24.36
2018-06-12T10:22:55.915Z,24.60
2018-06-12T10:23:55.921Z,24.50
2018-06-12T10:24:55.965Z,24.20
2018-06-12T10:25:55.928Z,24.10
2018-06-12T10:26:55.937Z,24.14
2018-06-12T10:27:55.942Z,24.21
2018-06-12T10:28:55.953Z,24.38
2018-06-12T10:29:55.954Z,24.47
2018-06-12T10:30:55.957Z,24.76
2018-06-12T10:31:55.961Z,24.54
2018-06-12T10:32:55.969Z,24.48
2018-06-12T10:33:56.007Z,24.50
2018-06-12T10:34:55.980Z,24.48
2018-06-12T10:35:55.986Z,24.48
2018-06-12T10:36:55.996Z,24.50
2018-06-12T10:37:55.996Z,24.55
2018-06-12T10:38:56.013Z,24.78
2018-06-12T10:39:56.005Z,25.13
2018-06-12T10:40:56.015Z,25.43
2018-06-12T10:41:56.018Z,25.62
2018-06-12T10:42:56.025Z,25.84
2018-06-12T10:43:56.028Z,26.22
2018-06-12T10:44:56.035Z,26.45
2018-06-12T10:45:56.040Z,26.77
2018-06-12T10:46:56.047Z,26.95
2018-06-12T10:47:56.053Z,27.11
2018-06-12T10:48:56.078Z,26.92
2018-06-12T10:49:56.125Z,26.81
2018-06-12T10:50:56.072Z,26.83
2018-06-12T10:51:56.077Z,26.77
2018-06-12T10:52:56.089Z,26.70
2018-06-12T10:53:56.090Z,26.73
2018-06-12T10:54:56.102Z,27.68
2018-06-12T10:55:56.105Z,27.86
2018-06-12T10:56:56.111Z,28.19
2018-06-12T10:57:56.116Z,29.23
2018-06-12T10:58:56.126Z,29.42
2018-06-12T10:59:56.143Z,30.00
2018-06-12T11:00:56.138Z,30.24
2018-06-12T11:01:56.165Z,30.39
2018-06-12T11:02:56.155Z,30.08
2018-06-12T11:03:56.162Z,29.53
2018-06-12T11:04:56.209Z,29.12
2018-06-12T11:05:56.182Z,28.89
2018-06-12T11:06:56.189Z,28.91
2018-06-12T11:07:56.195Z,29.07
2018-06-12T11:08:56.203Z,29.02
2018-06-12T11:09:56.249Z,28.85
2018-06-12T11:10:56.469Z,28.23
2018-06-12T11:11:56.235Z,28.10
2018-06-12T11:12:56.242Z,28.14
2018-06-12T11:13:56.254Z,28.20
2018-06-12T11:14:56.255Z,28.62
2018-06-12T11:15:56.261Z,29.10
2018-06-12T11:16:56.277Z,29.68
2018-06-12T11:17:56.280Z,29.98
2018-06-12T11:18:56.303Z,29.76
2018-06-12T11:19:56.301Z,29.81
2018-06-12T11:20:56.306Z,29.72
2018-06-12T11:21:56.321Z,29.44
2018-06-12T11:22:56.324Z,29.59
2018-06-12T11:23:56.332Z,29.49
2018-06-12T11:24:56.342Z,29.22
2018-06-12T11:25:56.371Z,29.05
2018-06-12T11:26:56.360Z,28.85
2018-06-12T11:27:56.383Z,28.64
2018-06-12T11:28:56.380Z,28.49
2018-06-12T11:29:56.384Z,28.35
2018-06-12T11:30:56.399Z,28.33
2018-06-12T11:31:56.424Z,28.41
2018-06-12T11:32:56.417Z,28.48
2018-06-12T11:33:56.418Z,28.44
2018-06-12T11:34:56.425Z,28.35
2018-06-12T11:35:56.432Z,28.12
2018-06-12T11:36:56.440Z,27.95
2018-06-12T11:37:56.450Z,28.00
2018-06-12T11:38:56.458Z,28.04
2018-06-12T11:39:56.464Z,28.00
2018-06-12T11:40:56.472Z,27.95
2018-06-12T11:41:56.478Z,27.93
2018-06-12T11:42:56.490Z,27.86
2018-06-12T11:43:56.497Z,27.75
2018-06-12T11:44:56.501Z,27.71
2018-06-12T11:45:56.511Z,27.70
2018-06-12T11:46:56.518Z,27.60
2018-06-12T11:47:56.523Z,27.58
2018-06-12T11:48:56.531Z,27.59
2018-06-12T11:49:56.554Z,27.65
2018-06-12T11:50:56.589Z,27.63
2018-06-12T11:51:56.555Z,27.58
2018-06-12T11:52:56.575Z,27.54
2018-06-12T11:53:56.566Z,27.44
2018-06-12T11:54:56.579Z,27.36
2018-06-12T11:55:56.579Z,27.54
2018-06-12T11:56:56.594Z,27.71
2018-06-12T11:57:56.595Z,28.11
2018-06-12T11:58:56.607Z,28.22
2018-06-12T11:59:56.611Z,28.15
2018-06-12T12:00:56.617Z,28.17
2018-06-12T12:01:56.623Z,28.04
2018-06-12T12:02:56.634Z,28.17
2018-06-12T12:03:56.635Z,28.29
2018-06-12T12:04:56.644Z,28.05
2018-06-12T12:05:56.653Z,28.05
2018-06-12T12:06:56.662Z,27.93
2018-06-12T12:07:56.666Z,27.93
2018-06-12T12:08:56.684Z,27.80
2018-06-12T12:09:56.696Z,27.92
2018-06-12T12:10:56.712Z,28.52
2018-06-12T12:11:56.695Z,28.76
2018-06-12T12:12:56.701Z,29.32
2018-06-12T12:13:56.735Z,29.78
2018-06-12T12:14:56.723Z,30.15
2018-06-12T12:15:56.755Z,30.18
2018-06-12T12:16:56.753Z,30.63
2018-06-12T12:17:56.755Z,30.85
2018-06-12T12:18:56.755Z,31.12
2018-06-12T12:19:56.771Z,31.43
2018-06-12T12:20:56.984Z,31.56
2018-06-12T12:21:57.131Z,31.84
2018-06-12T12:22:56.786Z,31.84
2018-06-12T12:23:56.791Z,31.44
2018-06-12T12:24:56.799Z,30.97
2018-06-12T12:25:56.813Z,30.46
2018-06-12T12:26:56.816Z,30.21
2018-06-12T12:27:56.828Z,29.81
2018-06-12T12:28:56.841Z,29.69
2018-06-12T12:29:56.843Z,29.71
2018-06-12T12:30:56.850Z,29.69
2018-06-12T12:31:56.859Z,29.65
2018-06-12T12:32:56.870Z,29.50
2018-06-12T12:33:56.876Z,29.22
2018-06-12T12:34:56.884Z,29.14
2018-06-12T12:35:56.892Z,29.01
2018-06-12T12:36:56.908Z,28.93
2018-06-12T12:37:56.910Z,28.69
2018-06-12T12:38:56.918Z,28.45
2018-06-12T12:39:56.926Z,28.20
2018-06-12T12:40:56.933Z,28.15
2018-06-12T12:41:56.940Z,27.85
2018-06-12T12:42:56.948Z,27.78
2018-06-12T12:43:56.953Z,27.74
2018-06-12T12:44:56.963Z,27.67
2018-06-12T12:45:56.971Z,27.67
2018-06-12T12:46:56.982Z,27.65
2018-06-12T12:47:56.985Z,27.74
2018-06-12T12:48:56.991Z,27.59
2018-06-12T12:49:56.998Z,27.68
2018-06-12T12:50:57.006Z,27.73
2018-06-12T12:51:57.011Z,27.75
2018-06-12T12:52:57.026Z,27.48